sensor_id;sensor_type;location;lat;lon;timestamp;pressure;altitude;pressure_sealevel;temperature;humidity
45731;BME280;31440;48.584;13.460;2022-08-20T00:01:33;96511.31;;;16.73;100.00
45731;BME280;31440;48.584;13.460;2022-08-20T00:03:58;96511.19;;;16.75;100.00
45731;BME280;31440;48.584;13.460;2022-08-20T00:06:24;96512.78;;;16.78;100.00
45731;BME280;31440;48.584;13.460;2022-08-20T00:08:50;96507.19;;;16.69;100.00
45731;BME280;31440;48.584;13.460;2022-08-20T00:11:19;96512.56;;;16.81;100.00
45731;BME280;31440;48.584;13.460;2022-08-20T00:13:49;96511.69;;;17.05;100.00
45731;BME280;31440;48.584;13.460;2022-08-20T00:16:17;96512.34;;;16.71;100.00
45731;BME280;31440;48.584;13.460;2022-08-20T00:18:44;96515.19;;;16.93;100.00
45731;BME280;31440;48.584;13.460;2022-08-20T00:21:12;96523.34;;;17.01;100.00
45731;BME280;31440;48.584;13.460;2022-08-20T00:23:40;96519.19;;;16.61;100.00
45731;BME280;31440;48.584;13.460;2022-08-20T00:26:07;96520.50;;;17.04;100.00
45731;BME280;31440;48.584;13.460;2022-08-20T00:28:33;96508.03;;;16.83;100.00
45731;BME280;31440;48.584;13.460;2022-08-20T00:31:03;96506.00;;;16.48;100.00
45731;BME280;31440;48.584;13.460;2022-08-20T00:33:30;96506.53;;;17.04;100.00
45731;BME280;31440;48.584;13.460;2022-08-20T00:35:56;96510.03;;;16.79;100.00
45731;BME280;31440;48.584;13.460;2022-08-20T00:38:23;96495.31;;;17.02;100.00
45731;BME280;31440;48.584;13.460;2022-08-20T00:40:55;96501.81;;;16.58;100.00
45731;BME280;31440;48.584;13.460;2022-08-20T00:43:49;96506.84;;;17.12;100.00
45731;BME280;31440;48.584;13.460;2022-08-20T00:46:21;96506.25;;;16.96;100.00
45731;BME280;31440;48.584;13.460;2022-08-20T00:48:52;96501.59;;;16.99;100.00
45731;BME280;31440;48.584;13.460;2022-08-20T00:51:28;96489.53;;;17.10;100.00
45731;BME280;31440;48.584;13.460;2022-08-20T00:54:00;96493.69;;;17.25;100.00
45731;BME280;31440;48.584;13.460;2022-08-20T00:56:29;96491.84;;;17.01;100.00
45731;BME280;31440;48.584;13.460;2022-08-20T00:58:55;96494.31;;;17.28;100.00
45731;BME280;31440;48.584;13.460;2022-08-20T01:01:20;96492.88;;;17.12;100.00
45731;BME280;31440;48.584;13.460;2022-08-20T01:03:48;96491.31;;;17.46;100.00
45731;BME280;31440;48.584;13.460;2022-08-20T01:06:13;96496.09;;;17.28;100.00
45731;BME280;31440;48.584;13.460;2022-08-20T01:08:39;96488.91;;;17.42;100.00
45731;BME280;31440;48.584;13.460;2022-08-20T01:11:06;96492.88;;;17.61;100.00
45731;BME280;31440;48.584;13.460;2022-08-20T01:13:36;96482.69;;;17.56;100.00
45731;BME280;31440;48.584;13.460;2022-08-20T01:16:09;96506.53;;;17.17;100.00
45731;BME280;31440;48.584;13.460;2022-08-20T01:18:37;96506.53;;;17.17;100.00
45731;BME280;31440;48.584;13.460;2022-08-20T01:21:05;96499.88;;;17.24;100.00
45731;BME280;31440;48.584;13.460;2022-08-20T01:24:09;96498.69;;;17.40;100.00
45731;BME280;31440;48.584;13.460;2022-08-20T01:26:40;96509.88;;;17.19;100.00
45731;BME280;31440;48.584;13.460;2022-08-20T01:29:21;96507.47;;;17.03;100.00
45731;BME280;31440;48.584;13.460;2022-08-20T01:31:48;96494.50;;;16.76;100.00
45731;BME280;31440;48.584;13.460;2022-08-20T01:34:17;96488.25;;;16.52;100.00
45731;BME280;31440;48.584;13.460;2022-08-20T01:36:49;96490.94;;;16.77;100.00
45731;BME280;31440;48.584;13.460;2022-08-20T01:39:17;96488.28;;;16.64;100.00
45731;BME280;31440;48.584;13.460;2022-08-20T01:44:09;96490.47;;;16.58;100.00
45731;BME280;31440;48.584;13.460;2022-08-20T01:46:41;96485.34;;;16.94;100.00
45731;BME280;31440;48.584;13.460;2022-08-20T01:49:10;96485.84;;;16.99;100.00
45731;BME280;31440;48.584;13.460;2022-08-20T01:51:37;96487.97;;;16.94;100.00
45731;BME280;31440;48.584;13.460;2022-08-20T01:54:04;96482.69;;;17.07;100.00
45731;BME280;31440;48.584;13.460;2022-08-20T01:56:32;96477.66;;;17.17;100.00
45731;BME280;31440;48.584;13.460;2022-08-20T01:59:02;96464.13;;;16.97;100.00
45731;BME280;31440;48.584;13.460;2022-08-20T02:01:37;96491.31;;;17.09;100.00
45731;BME280;31440;48.584;13.460;2022-08-20T02:04:07;96488.91;;;16.93;100.00
45731;BME280;31440;48.584;13.460;2022-08-20T02:06:36;96483.72;;;17.17;100.00
45731;BME280;31440;48.584;13.460;2022-08-20T02:09:04;96484.19;;;16.98;100.00
45731;BME280;31440;48.584;13.460;2022-08-20T02:11:30;96474.75;;;16.96;100.00
45731;BME280;31440;48.584;13.460;2022-08-20T02:13:57;96489.97;;;16.65;100.00
45731;BME280;31440;48.584;13.460;2022-08-20T02:16:27;96491.97;;;16.75;100.00
45731;BME280;31440;48.584;13.460;2022-08-20T02:19:07;96494.56;;;17.00;100.00
45731;BME280;31440;48.584;13.460;2022-08-20T02:21:39;96489.38;;;16.62;100.00
45731;BME280;31440;48.584;13.460;2022-08-20T02:24:05;96489.16;;;16.78;100.00
45731;BME280;31440;48.584;13.460;2022-08-20T02:26:31;96486.53;;;16.78;100.00
45731;BME280;31440;48.584;13.460;2022-08-20T02:28:57;96483.22;;;16.36;100.00
45731;BME280;31440;48.584;13.460;2022-08-20T02:31:24;96486.75;;;16.62;100.00
45731;BME280;31440;48.584;13.460;2022-08-20T02:33:50;96478.31;;;16.69;100.00
45731;BME280;31440;48.584;13.460;2022-08-20T02:36:17;96495.94;;;17.05;100.00
45731;BME280;31440;48.584;13.460;2022-08-20T02:38:44;96502.72;;;17.21;100.00
45731;BME280;31440;48.584;13.460;2022-08-20T02:41:11;96485.88;;;16.87;100.00
45731;BME280;31440;48.584;13.460;2022-08-20T02:43:37;96483.34;;;16.98;100.00
45731;BME280;31440;48.584;13.460;2022-08-20T02:46:03;96478.53;;;16.66;100.00
45731;BME280;31440;48.584;13.460;2022-08-20T02:48:30;96484.81;;;16.38;100.00
45731;BME280;31440;48.584;13.460;2022-08-20T02:51:03;96494.47;;;16.63;100.00
45731;BME280;31440;48.584;13.460;2022-08-20T02:53:31;96483.88;;;16.65;100.00
45731;BME280;31440;48.584;13.460;2022-08-20T02:55:57;96477.88;;;16.50;100.00
45731;BME280;31440;48.584;13.460;2022-08-20T02:58:25;96487.16;;;16.16;100.00
45731;BME280;31440;48.584;13.460;2022-08-20T03:00:50;96487.94;;;16.31;100.00
45731;BME280;31440;48.584;13.460;2022-08-20T03:03:16;96485.59;;;16.14;100.00
45731;BME280;31440;48.584;13.460;2022-08-20T03:05:48;96482.81;;;15.90;100.00
45731;BME280;31440;48.584;13.460;2022-08-20T03:08:15;96488.47;;;15.84;100.00
45731;BME280;31440;48.584;13.460;2022-08-20T03:10:43;96493.97;;;15.66;100.00
45731;BME280;31440;48.584;13.460;2022-08-20T03:13:09;96489.03;;;16.01;100.00
45731;BME280;31440;48.584;13.460;2022-08-20T03:15:41;96492.56;;;16.53;100.00
45731;BME280;31440;48.584;13.460;2022-08-20T03:18:07;96486.47;;;16.39;100.00
45731;BME280;31440;48.584;13.460;2022-08-20T03:20:33;96489.78;;;16.16;100.00
45731;BME280;31440;48.584;13.460;2022-08-20T03:22:59;96495.13;;;16.15;100.00
45731;BME280;31440;48.584;13.460;2022-08-20T03:25:26;96495.06;;;16.29;100.00
45731;BME280;31440;48.584;13.460;2022-08-20T03:27:52;96483.84;;;16.27;100.00
45731;BME280;31440;48.584;13.460;2022-08-20T03:30:18;96485.19;;;16.32;100.00
45731;BME280;31440;48.584;13.460;2022-08-20T03:32:44;96477.97;;;16.36;100.00
45731;BME280;31440;48.584;13.460;2022-08-20T03:35:13;96484.34;;;16.19;100.00
45731;BME280;31440;48.584;13.460;2022-08-20T03:37:40;96483.97;;;16.38;100.00
45731;BME280;31440;48.584;13.460;2022-08-20T03:40:08;96484.59;;;16.54;100.00
45731;BME280;31440;48.584;13.460;2022-08-20T03:42:35;96495.44;;;16.62;100.00
45731;BME280;31440;48.584;13.460;2022-08-20T03:45:01;96493.88;;;16.72;100.00
45731;BME280;31440;48.584;13.460;2022-08-20T03:47:27;96502.75;;;16.45;100.00
45731;BME280;31440;48.584;13.460;2022-08-20T03:49:57;96498.84;;;16.25;100.00
45731;BME280;31440;48.584;13.460;2022-08-20T03:52:24;96496.00;;;16.28;100.00
45731;BME280;31440;48.584;13.460;2022-08-20T03:54:49;96501.88;;;16.19;100.00
45731;BME280;31440;48.584;13.460;2022-08-20T03:57:15;96505.69;;;15.88;100.00
45731;BME280;31440;48.584;13.460;2022-08-20T03:59:42;96510.88;;;15.61;100.00
45731;BME280;31440;48.584;13.460;2022-08-20T04:02:10;96510.75;;;15.77;100.00
45731;BME280;31440;48.584;13.460;2022-08-20T04:04:36;96512.34;;;15.79;100.00
45731;BME280;31440;48.584;13.460;2022-08-20T04:07:11;96514.22;;;15.77;100.00
45731;BME280;31440;48.584;13.460;2022-08-20T04:09:37;96512.19;;;15.95;100.00
45731;BME280;31440;48.584;13.460;2022-08-20T04:12:03;96504.47;;;15.79;100.00
45731;BME280;31440;48.584;13.460;2022-08-20T04:14:29;96512.63;;;16.01;100.00
45731;BME280;31440;48.584;13.460;2022-08-20T04:16:54;96518.75;;;15.61;100.00
45731;BME280;31440;48.584;13.460;2022-08-20T04:19:20;96519.78;;;15.73;100.00
45731;BME280;31440;48.584;13.460;2022-08-20T04:21:45;96515.16;;;15.76;100.00
45731;BME280;31440;48.584;13.460;2022-08-20T04:24:13;96521.44;;;15.59;100.00
45731;BME280;31440;48.584;13.460;2022-08-20T04:26:40;96531.84;;;15.61;100.00
45731;BME280;31440;48.584;13.460;2022-08-20T04:29:06;96527.19;;;15.52;100.00
45731;BME280;31440;48.584;13.460;2022-08-20T04:31:32;96540.06;;;15.83;100.00
45731;BME280;31440;48.584;13.460;2022-08-20T04:34:02;96539.22;;;15.83;100.00
45731;BME280;31440;48.584;13.460;2022-08-20T04:36:28;96550.03;;;15.50;100.00
45731;BME280;31440;48.584;13.460;2022-08-20T04:38:54;96533.69;;;15.04;100.00
45731;BME280;31440;48.584;13.460;2022-08-20T04:41:20;96546.28;;;15.54;100.00
45731;BME280;31440;48.584;13.460;2022-08-20T04:43:46;96539.53;;;15.64;100.00
45731;BME280;31440;48.584;13.460;2022-08-20T04:46:12;96546.28;;;15.68;100.00
45731;BME280;31440;48.584;13.460;2022-08-20T04:48:39;96552.66;;;15.50;100.00
45731;BME280;31440;48.584;13.460;2022-08-20T04:51:08;96555.28;;;15.35;100.00
45731;BME280;31440;48.584;13.460;2022-08-20T04:53:34;96559.28;;;15.69;100.00
45731;BME280;31440;48.584;13.460;2022-08-20T04:56:01;96553.81;;;15.87;100.00
45731;BME280;31440;48.584;13.460;2022-08-20T04:58:33;96557.59;;;15.95;100.00
45731;BME280;31440;48.584;13.460;2022-08-20T05:01:02;96556.81;;;15.81;100.00
45731;BME280;31440;48.584;13.460;2022-08-20T05:03:28;96559.47;;;15.66;100.00
45731;BME280;31440;48.584;13.460;2022-08-20T05:05:54;96558.25;;;15.72;100.00
45731;BME280;31440;48.584;13.460;2022-08-20T05:08:22;96557.88;;;15.50;100.00
45731;BME280;31440;48.584;13.460;2022-08-20T05:10:48;96567.47;;;15.37;100.00
45731;BME280;31440;48.584;13.460;2022-08-20T05:13:14;96565.03;;;15.33;100.00
45731;BME280;31440;48.584;13.460;2022-08-20T05:15:41;96577.28;;;15.05;100.00
45731;BME280;31440;48.584;13.460;2022-08-20T05:18:10;96575.59;;;15.32;100.00
45731;BME280;31440;48.584;13.460;2022-08-20T05:20:38;96559.28;;;14.70;100.00
45731;BME280;31440;48.584;13.460;2022-08-20T05:23:09;96587.63;;;14.78;100.00
45731;BME280;31440;48.584;13.460;2022-08-20T05:25:35;96585.50;;;15.13;100.00
45731;BME280;31440;48.584;13.460;2022-08-20T05:28:06;96584.75;;;15.25;100.00
45731;BME280;31440;48.584;13.460;2022-08-20T05:30:36;96586.72;;;15.07;100.00
45731;BME280;31440;48.584;13.460;2022-08-20T05:33:06;96586.91;;;15.04;100.00
45731;BME280;31440;48.584;13.460;2022-08-20T05:35:34;96592.44;;;15.14;100.00
45731;BME280;31440;48.584;13.460;2022-08-20T05:38:04;96586.63;;;15.23;100.00
45731;BME280;31440;48.584;13.460;2022-08-20T05:40:29;96573.91;;;15.02;100.00
45731;BME280;31440;48.584;13.460;2022-08-20T05:42:55;96581.97;;;14.99;100.00
45731;BME280;31440;48.584;13.460;2022-08-20T05:45:21;96590.63;;;14.86;100.00
45731;BME280;31440;48.584;13.460;2022-08-20T05:47:47;96601.66;;;14.77;100.00
45731;BME280;31440;48.584;13.460;2022-08-20T05:50:14;96599.16;;;14.59;100.00
45731;BME280;31440;48.584;13.460;2022-08-20T05:52:40;96605.97;;;14.92;100.00
45731;BME280;31440;48.584;13.460;2022-08-20T05:55:08;96602.84;;;14.71;100.00
45731;BME280;31440;48.584;13.460;2022-08-20T05:57:35;96581.09;;;14.85;100.00
45731;BME280;31440;48.584;13.460;2022-08-20T06:00:03;96604.19;;;15.07;100.00
45731;BME280;31440;48.584;13.460;2022-08-20T06:02:37;96610.00;;;15.26;100.00
45731;BME280;31440;48.584;13.460;2022-08-20T06:05:22;96610.66;;;15.29;100.00
45731;BME280;31440;48.584;13.460;2022-08-20T06:07:47;96592.34;;;15.01;100.00
45731;BME280;31440;48.584;13.460;2022-08-20T06:10:15;96604.94;;;15.23;100.00
45731;BME280;31440;48.584;13.460;2022-08-20T06:12:41;96618.34;;;15.32;100.00
45731;BME280;31440;48.584;13.460;2022-08-20T06:15:10;96609.53;;;14.91;100.00
45731;BME280;31440;48.584;13.460;2022-08-20T06:17:36;96607.56;;;15.09;100.00
45731;BME280;31440;48.584;13.460;2022-08-20T06:20:04;96620.84;;;15.20;100.00
45731;BME280;31440;48.584;13.460;2022-08-20T06:22:31;96620.03;;;15.33;100.00
45731;BME280;31440;48.584;13.460;2022-08-20T06:24:57;96624.31;;;15.06;100.00
45731;BME280;31440;48.584;13.460;2022-08-20T06:27:23;96625.38;;;15.32;100.00
45731;BME280;31440;48.584;13.460;2022-08-20T06:29:49;96626.78;;;15.38;100.00
45731;BME280;31440;48.584;13.460;2022-08-20T06:32:16;96626.94;;;15.20;100.00
45731;BME280;31440;48.584;13.460;2022-08-20T06:34:42;96634.50;;;14.96;100.00
45731;BME280;31440;48.584;13.460;2022-08-20T06:37:15;96634.59;;;15.23;100.00
45731;BME280;31440;48.584;13.460;2022-08-20T06:39:42;96636.94;;;15.28;100.00
45731;BME280;31440;48.584;13.460;2022-08-20T06:42:08;96646.75;;;15.24;100.00
45731;BME280;31440;48.584;13.460;2022-08-20T06:44:33;96647.44;;;15.42;100.00
45731;BME280;31440;48.584;13.460;2022-08-20T06:47:04;96647.44;;;15.42;100.00
45731;BME280;31440;48.584;13.460;2022-08-20T06:49:34;96645.38;;;15.33;100.00
45731;BME280;31440;48.584;13.460;2022-08-20T06:52:00;96655.53;;;15.09;100.00
45731;BME280;31440;48.584;13.460;2022-08-20T06:54:26;96669.31;;;15.27;100.00
45731;BME280;31440;48.584;13.460;2022-08-20T06:56:52;96672.13;;;15.38;100.00
45731;BME280;31440;48.584;13.460;2022-08-20T06:59:19;96664.91;;;15.27;100.00
45731;BME280;31440;48.584;13.460;2022-08-20T07:01:45;96671.00;;;15.42;100.00
45731;BME280;31440;48.584;13.460;2022-08-20T07:04:14;96669.03;;;15.60;100.00
45731;BME280;31440;48.584;13.460;2022-08-20T07:06:41;96664.06;;;15.41;100.00
45731;BME280;31440;48.584;13.460;2022-08-20T07:09:06;96671.97;;;15.84;100.00
45731;BME280;31440;48.584;13.460;2022-08-20T07:11:32;96669.53;;;15.66;100.00
45731;BME280;31440;48.584;13.460;2022-08-20T07:13:59;96678.22;;;15.81;100.00
45731;BME280;31440;48.584;13.460;2022-08-20T07:16:27;96676.75;;;16.18;100.00
45731;BME280;31440;48.584;13.460;2022-08-20T07:18:53;96677.81;;;16.01;100.00
45731;BME280;31440;48.584;13.460;2022-08-20T07:21:19;96668.28;;;16.27;100.00
45731;BME280;31440;48.584;13.460;2022-08-20T07:23:44;96682.47;;;16.11;100.00
45731;BME280;31440;48.584;13.460;2022-08-20T07:26:13;96688.88;;;16.07;100.00
45731;BME280;31440;48.584;13.460;2022-08-20T07:28:39;96683.63;;;16.07;100.00
45731;BME280;31440;48.584;13.460;2022-08-20T07:31:05;96678.78;;;16.27;100.00
45731;BME280;31440;48.584;13.460;2022-08-20T07:33:49;96675.22;;;16.55;100.00
45731;BME280;31440;48.584;13.460;2022-08-20T07:36:14;96696.00;;;16.04;100.00
45731;BME280;31440;48.584;13.460;2022-08-20T07:38:40;96693.91;;;16.10;100.00
45731;BME280;31440;48.584;13.460;2022-08-20T07:41:09;96707.38;;;16.18;100.00
45731;BME280;31440;48.584;13.460;2022-08-20T07:43:40;96703.50;;;16.37;100.00
45731;BME280;31440;48.584;13.460;2022-08-20T07:46:06;96705.00;;;15.86;100.00
45731;BME280;31440;48.584;13.460;2022-08-20T07:48:37;96709.78;;;15.80;100.00
45731;BME280;31440;48.584;13.460;2022-08-20T07:51:05;96708.41;;;16.15;100.00
45731;BME280;31440;48.584;13.460;2022-08-20T07:53:33;96712.09;;;15.98;100.00
45731;BME280;31440;48.584;13.460;2022-08-20T07:56:00;96709.47;;;15.98;100.00
45731;BME280;31440;48.584;13.460;2022-08-20T07:58:27;96715.94;;;15.79;100.00
45731;BME280;31440;48.584;13.460;2022-08-20T08:00:54;96727.00;;;15.98;100.00
45731;BME280;31440;48.584;13.460;2022-08-20T08:03:20;96724.22;;;16.28;100.00
45731;BME280;31440;48.584;13.460;2022-08-20T08:05:48;96729.25;;;15.90;100.00
45731;BME280;31440;48.584;13.460;2022-08-20T08:08:20;96730.00;;;16.06;100.00
45731;BME280;31440;48.584;13.460;2022-08-20T08:10:48;96728.69;;;15.99;100.00
45731;BME280;31440;48.584;13.460;2022-08-20T08:13:27;96729.53;;;15.99;100.00
45731;BME280;31440;48.584;13.460;2022-08-20T08:15:55;96733.25;;;16.24;100.00
45731;BME280;31440;48.584;13.460;2022-08-20T08:18:25;96732.56;;;16.34;100.00
45731;BME280;31440;48.584;13.460;2022-08-20T08:20:53;96728.91;;;16.37;100.00
45731;BME280;31440;48.584;13.460;2022-08-20T08:23:20;96724.44;;;16.25;100.00
45731;BME280;31440;48.584;13.460;2022-08-20T08:25:48;96709.69;;;16.36;100.00
45731;BME280;31440;48.584;13.460;2022-08-20T08:28:16;96729.44;;;16.01;100.00
45731;BME280;31440;48.584;13.460;2022-08-20T08:30:43;96735.56;;;16.28;100.00
45731;BME280;31440;48.584;13.460;2022-08-20T08:33:24;96750.75;;;16.23;100.00
45731;BME280;31440;48.584;13.460;2022-08-20T08:36:05;96755.41;;;16.32;100.00
45731;BME280;31440;48.584;13.460;2022-08-20T08:38:33;96761.47;;;16.06;100.00
45731;BME280;31440;48.584;13.460;2022-08-20T08:41:10;96771.19;;;15.76;100.00
45731;BME280;31440;48.584;13.460;2022-08-20T08:43:38;96762.91;;;16.38;100.00
45731;BME280;31440;48.584;13.460;2022-08-20T08:46:07;96753.59;;;16.06;100.00
45731;BME280;31440;48.584;13.460;2022-08-20T08:48:36;96755.38;;;16.47;100.00
45731;BME280;31440;48.584;13.460;2022-08-20T08:51:04;96740.03;;;16.41;100.00
45731;BME280;31440;48.584;13.460;2022-08-20T08:53:48;96747.47;;;16.20;100.00
45731;BME280;31440;48.584;13.460;2022-08-20T08:56:17;96743.34;;;16.16;100.00
45731;BME280;31440;48.584;13.460;2022-08-20T08:58:43;96738.91;;;16.30;100.00
45731;BME280;31440;48.584;13.460;2022-08-20T09:01:12;96743.38;;;16.01;100.00
45731;BME280;31440;48.584;13.460;2022-08-20T09:03:39;96751.84;;;16.33;100.00
45731;BME280;31440;48.584;13.460;2022-08-20T09:06:14;96733.88;;;16.27;100.00
45731;BME280;31440;48.584;13.460;2022-08-20T09:09:01;96753.63;;;16.33;100.00
45731;BME280;31440;48.584;13.460;2022-08-20T09:11:28;96753.59;;;16.61;100.00
45731;BME280;31440;48.584;13.460;2022-08-20T09:13:54;96754.09;;;16.39;100.00
45731;BME280;31440;48.584;13.460;2022-08-20T09:16:21;96762.19;;;16.63;100.00
45731;BME280;31440;48.584;13.460;2022-08-20T09:18:48;96760.41;;;16.64;100.00
45731;BME280;31440;48.584;13.460;2022-08-20T09:21:14;96770.94;;;16.50;100.00
45731;BME280;31440;48.584;13.460;2022-08-20T09:23:40;96773.53;;;16.23;100.00
45731;BME280;31440;48.584;13.460;2022-08-20T09:26:06;96770.66;;;16.54;100.00
45731;BME280;31440;48.584;13.460;2022-08-20T09:28:32;96769.78;;;16.27;100.00
45731;BME280;31440;48.584;13.460;2022-08-20T09:30:58;96771.63;;;16.39;100.00
45731;BME280;31440;48.584;13.460;2022-08-20T09:33:24;96771.34;;;16.29;100.00
45731;BME280;31440;48.584;13.460;2022-08-20T09:35:50;96778.06;;;16.48;100.00
45731;BME280;31440;48.584;13.460;2022-08-20T09:38:15;96777.63;;;16.41;100.00
45731;BME280;31440;48.584;13.460;2022-08-20T09:40:41;96778.31;;;16.57;100.00
45731;BME280;31440;48.584;13.460;2022-08-20T09:43:07;96774.66;;;16.74;100.00
45731;BME280;31440;48.584;13.460;2022-08-20T09:45:34;96772.28;;;16.28;100.00
45731;BME280;31440;48.584;13.460;2022-08-20T09:48:00;96775.16;;;16.52;100.00
45731;BME280;31440;48.584;13.460;2022-08-20T09:50:28;96769.16;;;16.50;100.00
45731;BME280;31440;48.584;13.460;2022-08-20T09:52:56;96773.19;;;16.83;100.00
45731;BME280;31440;48.584;13.460;2022-08-20T09:55:42;96762.03;;;16.93;100.00
45731;BME280;31440;48.584;13.460;2022-08-20T09:58:19;96771.75;;;16.79;100.00
45731;BME280;31440;48.584;13.460;2022-08-20T10:00:46;96766.09;;;17.24;100.00
45731;BME280;31440;48.584;13.460;2022-08-20T10:03:13;96771.03;;;17.29;100.00
45731;BME280;31440;48.584;13.460;2022-08-20T10:05:38;96776.56;;;16.85;100.00
45731;BME280;31440;48.584;13.460;2022-08-20T10:08:05;96772.34;;;17.09;100.00
45731;BME280;31440;48.584;13.460;2022-08-20T10:10:31;96779.00;;;16.88;100.00
45731;BME280;31440;48.584;13.460;2022-08-20T10:12:57;96777.91;;;17.04;100.00
45731;BME280;31440;48.584;13.460;2022-08-20T10:15:23;96781.09;;;17.22;100.00
45731;BME280;31440;48.584;13.460;2022-08-20T10:17:48;96782.97;;;17.07;100.00
45731;BME280;31440;48.584;13.460;2022-08-20T10:20:14;96789.41;;;16.89;100.00
45731;BME280;31440;48.584;13.460;2022-08-20T10:22:40;96783.63;;;17.24;100.00
45731;BME280;31440;48.584;13.460;2022-08-20T10:25:06;96784.66;;;17.08;100.00
45731;BME280;31440;48.584;13.460;2022-08-20T10:27:32;96785.22;;;17.26;100.00
45731;BME280;31440;48.584;13.460;2022-08-20T10:29:58;96777.03;;;16.91;100.00
45731;BME280;31440;48.584;13.460;2022-08-20T10:32:23;96785.81;;;16.78;100.00
45731;BME280;31440;48.584;13.460;2022-08-20T10:34:49;96787.50;;;16.79;100.00
45731;BME280;31440;48.584;13.460;2022-08-20T10:37:19;96796.84;;;17.10;100.00
45731;BME280;31440;48.584;13.460;2022-08-20T10:39:45;96798.97;;;16.90;100.00
45731;BME280;31440;48.584;13.460;2022-08-20T10:42:11;96805.81;;;16.93;100.00
45731;BME280;31440;48.584;13.460;2022-08-20T10:44:37;96803.47;;;16.88;100.00
45731;BME280;31440;48.584;13.460;2022-08-20T10:47:17;96802.19;;;17.08;100.00
45731;BME280;31440;48.584;13.460;2022-08-20T10:49:43;96803.50;;;17.28;100.00
45731;BME280;31440;48.584;13.460;2022-08-20T10:52:09;96802.69;;;17.00;100.00
45731;BME280;31440;48.584;13.460;2022-08-20T10:54:34;96806.47;;;16.96;100.00
45731;BME280;31440;48.584;13.460;2022-08-20T10:57:02;96787.13;;;16.70;100.00
45731;BME280;31440;48.584;13.460;2022-08-20T10:59:28;96808.13;;;16.56;100.00
45731;BME280;31440;48.584;13.460;2022-08-20T11:01:53;96810.06;;;16.81;100.00
45731;BME280;31440;48.584;13.460;2022-08-20T11:04:19;96809.91;;;16.70;100.00
45731;BME280;31440;48.584;13.460;2022-08-20T11:06:44;96811.66;;;16.84;100.00
45731;BME280;31440;48.584;13.460;2022-08-20T11:09:10;96809.91;;;17.24;100.00
45731;BME280;31440;48.584;13.460;2022-08-20T11:11:36;96810.34;;;17.30;100.00
45731;BME280;31440;48.584;13.460;2022-08-20T11:14:01;96803.59;;;17.14;100.00
45731;BME280;31440;48.584;13.460;2022-08-20T11:16:28;96804.31;;;17.55;100.00
45731;BME280;31440;48.584;13.460;2022-08-20T11:18:54;96815.06;;;17.52;100.00
45731;BME280;31440;48.584;13.460;2022-08-20T11:21:20;96805.47;;;17.12;100.00
45731;BME280;31440;48.584;13.460;2022-08-20T11:23:45;96810.69;;;16.44;100.00
45731;BME280;31440;48.584;13.460;2022-08-20T11:26:20;96811.41;;;17.01;100.00
45731;BME280;31440;48.584;13.460;2022-08-20T11:28:46;96807.63;;;17.32;100.00
45731;BME280;31440;48.584;13.460;2022-08-20T11:31:11;96803.78;;;17.11;100.00
45731;BME280;31440;48.584;13.460;2022-08-20T11:33:37;96801.78;;;16.87;100.00
45731;BME280;31440;48.584;13.460;2022-08-20T11:36:02;96805.16;;;17.16;100.00
45731;BME280;31440;48.584;13.460;2022-08-20T11:38:28;96798.38;;;17.39;100.00
45731;BME280;31440;48.584;13.460;2022-08-20T11:40:54;96799.38;;;17.11;100.00
45731;BME280;31440;48.584;13.460;2022-08-20T11:43:19;96798.09;;;16.49;100.00
45731;BME280;31440;48.584;13.460;2022-08-20T11:45:48;96813.31;;;16.44;100.00
45731;BME280;31440;48.584;13.460;2022-08-20T11:48:15;96806.44;;;16.69;100.00
45731;BME280;31440;48.584;13.460;2022-08-20T11:50:41;96814.88;;;16.46;100.00
45731;BME280;31440;48.584;13.460;2022-08-20T11:53:06;96815.44;;;16.65;100.00
45731;BME280;31440;48.584;13.460;2022-08-20T11:55:32;96810.50;;;16.88;100.00
45731;BME280;31440;48.584;13.460;2022-08-20T11:57:58;96809.53;;;16.76;100.00
45731;BME280;31440;48.584;13.460;2022-08-20T12:00:23;96821.38;;;16.96;100.00
45731;BME280;31440;48.584;13.460;2022-08-20T12:02:49;96800.16;;;16.99;100.00
45731;BME280;31440;48.584;13.460;2022-08-20T12:05:16;96802.47;;;17.03;100.00
45731;BME280;31440;48.584;13.460;2022-08-20T12:07:42;96794.53;;;17.18;100.00
45731;BME280;31440;48.584;13.460;2022-08-20T12:10:08;96805.59;;;17.23;100.00
45731;BME280;31440;48.584;13.460;2022-08-20T12:12:35;96799.34;;;16.98;100.00
45731;BME280;31440;48.584;13.460;2022-08-20T12:15:01;96803.47;;;17.55;100.00
45731;BME280;31440;48.584;13.460;2022-08-20T12:17:28;96812.34;;;17.00;100.00
45731;BME280;31440;48.584;13.460;2022-08-20T12:19:56;96805.28;;;17.15;100.00
45731;BME280;31440;48.584;13.460;2022-08-20T12:22:22;96800.53;;;17.20;100.00
45731;BME280;31440;48.584;13.460;2022-08-20T12:24:48;96808.41;;;17.20;100.00
45731;BME280;31440;48.584;13.460;2022-08-20T12:27:26;96816.25;;;17.07;100.00
45731;BME280;31440;48.584;13.460;2022-08-20T12:29:54;96809.13;;;16.82;100.00
45731;BME280;31440;48.584;13.460;2022-08-20T12:32:21;96811.72;;;16.96;100.00
45731;BME280;31440;48.584;13.460;2022-08-20T12:34:47;96810.78;;;16.97;100.00
45731;BME280;31440;48.584;13.460;2022-08-20T12:37:16;96819.94;;;17.04;100.00
45731;BME280;31440;48.584;13.460;2022-08-20T12:39:45;96813.25;;;17.13;100.00
45731;BME280;31440;48.584;13.460;2022-08-20T12:42:11;96814.88;;;17.01;100.00
45731;BME280;31440;48.584;13.460;2022-08-20T12:44:38;96818.78;;;17.08;100.00
45731;BME280;31440;48.584;13.460;2022-08-20T12:47:14;96808.38;;;17.07;100.00